sensor_id;sensor_type;location;lat;lon;timestamp;P1;durP1;ratioP1;P2;durP2;ratioP2
77158;SDS011;66129;45.890;13.714;2023-06-22T16:37:21;10.60;;;6.32;;
77158;SDS011;66129;45.890;13.714;2023-06-22T16:39:49;11.98;;;5.90;;
77158;SDS011;66129;45.890;13.714;2023-06-22T16:42:15;11.00;;;5.90;;
77158;SDS011;66129;45.890;13.714;2023-06-22T16:44:43;7.78;;;5.13;;
77158;SDS011;66129;45.890;13.714;2023-06-22T16:47:08;10.25;;;6.00;;
77158;SDS011;66129;45.890;13.714;2023-06-22T16:49:34;10.88;;;5.95;;
77158;SDS011;66129;45.890;13.714;2023-06-22T16:52:03;9.52;;;5.60;;
77158;SDS011;66129;45.890;13.714;2023-06-22T16:54:29;7.82;;;5.50;;
77158;SDS011;66129;45.890;13.714;2023-06-22T16:56:55;10.00;;;5.38;;
77158;SDS011;66129;45.890;13.714;2023-06-22T16:59:23;13.30;;;6.32;;
77158;SDS011;66129;45.890;13.714;2023-06-22T17:01:53;7.38;;;5.57;;
77158;SDS011;66129;45.890;13.714;2023-06-22T17:04:23;10.15;;;5.82;;
77158;SDS011;66129;45.890;13.714;2023-06-22T17:06:57;9.07;;;5.63;;
77158;SDS011;66129;45.890;13.714;2023-06-22T17:09:26;8.57;;;5.53;;
77158;SDS011;66129;45.890;13.714;2023-06-22T17:11:55;12.88;;;5.88;;
77158;SDS011;66129;45.890;13.714;2023-06-22T17:14:21;10.20;;;6.03;;
77158;SDS011;66129;45.890;13.714;2023-06-22T17:16:47;9.68;;;5.97;;
77158;SDS011;66129;45.890;13.714;2023-06-22T17:19:14;10.65;;;6.38;;
77158;SDS011;66129;45.890;13.714;2023-06-22T17:21:40;12.85;;;5.85;;
77158;SDS011;66129;45.890;13.714;2023-06-22T17:24:07;11.50;;;6.53;;
77158;SDS011;66129;45.890;13.714;2023-06-22T17:26:32;10.98;;;6.10;;
77158;SDS011;66129;45.890;13.714;2023-06-22T17:28:58;10.15;;;6.18;;
77158;SDS011;66129;45.890;13.714;2023-06-22T17:32:00;10.65;;;6.07;;
77158;SDS011;66129;45.890;13.714;2023-06-22T17:34:20;13.88;;;6.65;;
77158;SDS011;66129;45.890;13.714;2023-06-22T17:36:47;10.60;;;6.47;;
77158;SDS011;66129;45.890;13.714;2023-06-22T17:39:18;11.23;;;6.43;;
77158;SDS011;66129;45.890;13.714;2023-06-22T17:41:45;14.50;;;7.43;;
77158;SDS011;66129;45.890;13.714;2023-06-22T17:44:12;16.90;;;6.50;;
77158;SDS011;66129;45.890;13.714;2023-06-22T17:49:08;8.45;;;5.40;;
77158;SDS011;66129;45.890;13.714;2023-06-22T17:51:35;7.78;;;5.32;;
77158;SDS011;66129;45.890;13.714;2023-06-22T17:54:03;13.35;;;6.50;;
77158;SDS011;66129;45.890;13.714;2023-06-22T17:56:29;10.68;;;5.97;;
77158;SDS011;66129;45.890;13.714;2023-06-22T17:58:55;19.70;;;6.15;;
77158;SDS011;66129;45.890;13.714;2023-06-22T18:01:31;14.20;;;6.43;;
77158;SDS011;66129;45.890;13.714;2023-06-22T18:03:59;13.88;;;6.18;;
77158;SDS011;66129;45.890;13.714;2023-06-22T18:06:26;8.90;;;6.50;;
77158;SDS011;66129;45.890;13.714;2023-06-22T18:09:02;8.82;;;6.50;;
77158;SDS011;66129;45.890;13.714;2023-06-22T18:11:36;10.13;;;6.78;;
77158;SDS011;66129;45.890;13.714;2023-06-22T18:14:07;14.18;;;7.35;;
77158;SDS011;66129;45.890;13.714;2023-06-22T18:16:33;13.68;;;6.22;;
77158;SDS011;66129;45.890;13.714;2023-06-22T18:19:02;13.15;;;6.78;;
77158;SDS011;66129;45.890;13.714;2023-06-22T18:21:29;15.27;;;7.45;;
77158;SDS011;66129;45.890;13.714;2023-06-22T18:23:54;23.20;;;8.48;;
77158;SDS011;66129;45.890;13.714;2023-06-22T18:26:21;13.77;;;7.00;;
77158;SDS011;66129;45.890;13.714;2023-06-22T18:28:52;11.68;;;6.55;;
77158;SDS011;66129;45.890;13.714;2023-06-22T18:31:19;11.45;;;7.30;;
77158;SDS011;66129;45.890;13.714;2023-06-22T18:33:49;14.20;;;7.60;;
77158;SDS011;66129;45.890;13.714;2023-06-22T18:36:17;12.73;;;6.38;;
77158;SDS011;66129;45.890;13.714;2023-06-22T18:38:46;14.63;;;7.85;;
77158;SDS011;66129;45.890;13.714;2023-06-22T18:41:20;16.40;;;7.60;;
77158;SDS011;66129;45.890;13.714;2023-06-22T18:43:51;12.40;;;7.32;;
77158;SDS011;66129;45.890;13.714;2023-06-22T18:46:37;8.98;;;6.65;;
77158;SDS011;66129;45.890;13.714;2023-06-22T18:49:15;11.93;;;7.38;;
77158;SDS011;66129;45.890;13.714;2023-06-22T18:54:34;12.40;;;6.95;;
77158;SDS011;66129;45.890;13.714;2023-06-22T18:57:17;11.98;;;7.63;;
77158;SDS011;66129;45.890;13.714;2023-06-22T19:12:51;11.30;;;7.68;;
77158;SDS011;66129;45.890;13.714;2023-06-22T19:15:18;11.02;;;7.40;;
77158;SDS011;66129;45.890;13.714;2023-06-22T19:17:48;14.07;;;7.55;;
77158;SDS011;66129;45.890;13.714;2023-06-22T19:20:17;13.82;;;7.05;;
77158;SDS011;66129;45.890;13.714;2023-06-22T19:25:20;14.40;;;8.05;;
77158;SDS011;66129;45.890;13.714;2023-06-22T19:27:48;15.07;;;8.57;;
77158;SDS011;66129;45.890;13.714;2023-06-22T19:30:16;12.98;;;7.65;;
77158;SDS011;66129;45.890;13.714;2023-06-22T19:32:42;11.52;;;7.57;;
77158;SDS011;66129;45.890;13.714;2023-06-22T19:35:09;11.85;;;7.00;;
77158;SDS011;66129;45.890;13.714;2023-06-22T19:37:35;19.05;;;8.15;;
77158;SDS011;66129;45.890;13.714;2023-06-22T19:40:00;15.95;;;7.72;;
77158;SDS011;66129;45.890;13.714;2023-06-22T19:42:26;14.68;;;8.13;;
77158;SDS011;66129;45.890;13.714;2023-06-22T19:44:52;8.68;;;6.38;;
77158;SDS011;66129;45.890;13.714;2023-06-22T19:47:20;14.02;;;7.47;;
77158;SDS011;66129;45.890;13.714;2023-06-22T19:49:46;14.63;;;7.45;;
77158;SDS011;66129;45.890;13.714;2023-06-22T19:52:11;14.65;;;7.50;;
77158;SDS011;66129;45.890;13.714;2023-06-22T19:54:40;19.42;;;7.38;;
77158;SDS011;66129;45.890;13.714;2023-06-22T19:57:05;10.90;;;7.43;;
77158;SDS011;66129;45.890;13.714;2023-06-22T19:59:31;13.90;;;6.72;;
77158;SDS011;66129;45.890;13.714;2023-06-22T20:01:57;9.15;;;7.70;;
77158;SDS011;66129;45.890;13.714;2023-06-22T20:04:24;14.63;;;7.53;;
77158;SDS011;66129;45.890;13.714;2023-06-22T20:07:02;10.85;;;7.28;;
77158;SDS011;66129;45.890;13.714;2023-06-22T20:09:31;12.93;;;7.82;;
77158;SDS011;66129;45.890;13.714;2023-06-22T20:11:58;19.25;;;7.97;;
77158;SDS011;66129;45.890;13.714;2023-06-22T20:14:32;15.45;;;9.13;;
77158;SDS011;66129;45.890;13.714;2023-06-22T20:16:58;16.35;;;8.32;;
77158;SDS011;66129;45.890;13.714;2023-06-22T20:19:36;12.85;;;7.70;;
77158;SDS011;66129;45.890;13.714;2023-06-22T20:22:05;11.88;;;7.75;;
77158;SDS011;66129;45.890;13.714;2023-06-22T20:24:31;11.27;;;7.57;;
77158;SDS011;66129;45.890;13.714;2023-06-22T20:26:58;11.27;;;7.40;;
77158;SDS011;66129;45.890;13.714;2023-06-22T20:29:25;14.02;;;7.32;;
77158;SDS011;66129;45.890;13.714;2023-06-22T20:34:46;11.90;;;7.13;;
77158;SDS011;66129;45.890;13.714;2023-06-22T20:37:13;13.70;;;7.68;;
77158;SDS011;66129;45.890;13.714;2023-06-22T20:39:40;17.25;;;7.82;;
77158;SDS011;66129;45.890;13.714;2023-06-22T20:42:05;13.13;;;7.82;;
77158;SDS011;66129;45.890;13.714;2023-06-22T20:44:32;10.10;;;7.75;;
77158;SDS011;66129;45.890;13.714;2023-06-22T20:47:00;9.43;;;6.07;;
77158;SDS011;66129;45.890;13.714;2023-06-22T20:49:25;13.43;;;7.95;;
77158;SDS011;66129;45.890;13.714;2023-06-22T20:51:51;11.95;;;7.80;;
77158;SDS011;66129;45.890;13.714;2023-06-22T20:54:17;11.85;;;7.55;;
77158;SDS011;66129;45.890;13.714;2023-06-22T20:56:43;10.90;;;7.05;;
77158;SDS011;66129;45.890;13.714;2023-06-22T20:59:10;12.32;;;7.80;;
77158;SDS011;66129;45.890;13.714;2023-06-22T21:01:35;12.52;;;8.35;;
77158;SDS011;66129;45.890;13.714;2023-06-22T21:04:01;13.55;;;8.27;;
77158;SDS011;66129;45.890;13.714;2023-06-22T21:06:27;12.02;;;7.70;;
77158;SDS011;66129;45.890;13.714;2023-06-22T21:08:53;12.40;;;8.13;;
77158;SDS011;66129;45.890;13.714;2023-06-22T21:11:19;12.57;;;7.80;;
77158;SDS011;66129;45.890;13.714;2023-06-22T21:13:44;14.65;;;7.65;;
77158;SDS011;66129;45.890;13.714;2023-06-22T21:16:09;12.55;;;7.65;;
77158;SDS011;66129;45.890;13.714;2023-06-22T21:18:35;14.15;;;9.32;;
77158;SDS011;66129;45.890;13.714;2023-06-22T21:21:00;14.45;;;8.38;;
77158;SDS011;66129;45.890;13.714;2023-06-22T21:23:26;13.23;;;8.75;;
77158;SDS011;66129;45.890;13.714;2023-06-22T21:25:51;15.38;;;9.35;;
77158;SDS011;66129;45.890;13.714;2023-06-22T21:28:17;14.20;;;9.90;;
77158;SDS011;66129;45.890;13.714;2023-06-22T21:30:43;13.85;;;9.93;;
77158;SDS011;66129;45.890;13.714;2023-06-22T21:33:09;14.60;;;10.10;;
77158;SDS011;66129;45.890;13.714;2023-06-22T21:35:34;18.63;;;10.27;;
77158;SDS011;66129;45.890;13.714;2023-06-22T21:38:00;13.25;;;9.80;;
77158;SDS011;66129;45.890;13.714;2023-06-22T21:40:26;12.63;;;9.25;;
77158;SDS011;66129;45.890;13.714;2023-06-22T21:42:51;12.35;;;8.88;;
77158;SDS011;66129;45.890;13.714;2023-06-22T21:45:17;15.32;;;8.63;;
77158;SDS011;66129;45.890;13.714;2023-06-22T21:47:42;13.05;;;9.75;;
77158;SDS011;66129;45.890;13.714;2023-06-22T21:50:08;14.05;;;9.10;;
77158;SDS011;66129;45.890;13.714;2023-06-22T21:52:33;13.82;;;10.30;;
77158;SDS011;66129;45.890;13.714;2023-06-22T21:54:59;12.40;;;8.50;;
77158;SDS011;66129;45.890;13.714;2023-06-22T21:57:26;13.15;;;9.23;;
77158;SDS011;66129;45.890;13.714;2023-06-22T21:59:54;13.45;;;8.60;;
77158;SDS011;66129;45.890;13.714;2023-06-22T22:02:20;16.02;;;10.10;;
77158;SDS011;66129;45.890;13.714;2023-06-22T22:04:46;15.77;;;9.38;;
77158;SDS011;66129;45.890;13.714;2023-06-22T22:07:12;15.88;;;9.10;;
77158;SDS011;66129;45.890;13.714;2023-06-22T22:09:37;14.48;;;9.27;;
77158;SDS011;66129;45.890;13.714;2023-06-22T22:12:03;14.93;;;9.68;;
77158;SDS011;66129;45.890;13.714;2023-06-22T22:14:28;13.93;;;9.57;;
77158;SDS011;66129;45.890;13.714;2023-06-22T22:16:54;10.68;;;8.52;;
77158;SDS011;66129;45.890;13.714;2023-06-22T22:19:20;17.25;;;9.20;;
77158;SDS011;66129;45.890;13.714;2023-06-22T22:21:46;13.93;;;9.63;;
77158;SDS011;66129;45.890;13.714;2023-06-22T22:24:12;12.60;;;9.02;;
77158;SDS011;66129;45.890;13.714;2023-06-22T22:26:38;16.50;;;10.77;;
77158;SDS011;66129;45.890;13.714;2023-06-22T22:29:04;17.38;;;10.32;;
77158;SDS011;66129;45.890;13.714;2023-06-22T22:31:30;22.17;;;9.52;;
77158;SDS011;66129;45.890;13.714;2023-06-22T22:34:01;13.75;;;9.43;;
77158;SDS011;66129;45.890;13.714;2023-06-22T22:36:27;11.98;;;9.23;;
77158;SDS011;66129;45.890;13.714;2023-06-22T22:38:53;15.40;;;9.52;;
77158;SDS011;66129;45.890;13.714;2023-06-22T22:41:18;15.43;;;10.35;;
77158;SDS011;66129;45.890;13.714;2023-06-22T22:43:44;16.58;;;9.60;;
77158;SDS011;66129;45.890;13.714;2023-06-22T22:46:09;13.30;;;9.70;;
77158;SDS011;66129;45.890;13.714;2023-06-22T22:48:34;12.27;;;8.65;;
77158;SDS011;66129;45.890;13.714;2023-06-22T22:51:01;13.95;;;9.45;;
77158;SDS011;66129;45.890;13.714;2023-06-22T22:53:29;14.13;;;9.88;;
77158;SDS011;66129;45.890;13.714;2023-06-22T22:55:55;12.85;;;9.48;;
77158;SDS011;66129;45.890;13.714;2023-06-22T22:58:22;14.93;;;9.65;;
77158;SDS011;66129;45.890;13.714;2023-06-22T23:00:47;16.70;;;9.82;;
77158;SDS011;66129;45.890;13.714;2023-06-22T23:03:13;15.23;;;10.80;;
77158;SDS011;66129;45.890;13.714;2023-06-22T23:05:38;18.00;;;10.05;;
77158;SDS011;66129;45.890;13.714;2023-06-22T23:08:04;15.60;;;10.05;;
77158;SDS011;66129;45.890;13.714;2023-06-22T23:10:31;17.42;;;10.13;;
77158;SDS011;66129;45.890;13.714;2023-06-22T23:12:56;13.68;;;9.25;;
77158;SDS011;66129;45.890;13.714;2023-06-22T23:15:23;15.93;;;11.07;;
77158;SDS011;66129;45.890;13.714;2023-06-22T23:17:48;14.85;;;10.82;;
77158;SDS011;66129;45.890;13.714;2023-06-22T23:20:16;13.65;;;9.57;;
77158;SDS011;66129;45.890;13.714;2023-06-22T23:22:44;18.25;;;10.65;;
77158;SDS011;66129;45.890;13.714;2023-06-22T23:25:09;13.07;;;9.35;;
77158;SDS011;66129;45.890;13.714;2023-06-22T23:27:38;13.63;;;8.70;;
77158;SDS011;66129;45.890;13.714;2023-06-22T23:30:04;13.68;;;10.40;;
77158;SDS011;66129;45.890;13.714;2023-06-22T23:32:33;14.10;;;9.95;;
77158;SDS011;66129;45.890;13.714;2023-06-22T23:34:59;15.40;;;9.73;;
77158;SDS011;66129;45.890;13.714;2023-06-22T23:37:27;14.05;;;9.63;;
77158;SDS011;66129;45.890;13.714;2023-06-22T23:39:52;18.08;;;9.15;;
77158;SDS011;66129;45.890;13.714;2023-06-22T23:42:18;16.13;;;9.35;;
77158;SDS011;66129;45.890;13.714;2023-06-22T23:44:43;19.33;;;10.00;;
77158;SDS011;66129;45.890;13.714;2023-06-22T23:47:09;16.83;;;9.73;;
77158;SDS011;66129;45.890;13.714;2023-06-22T23:49:34;19.83;;;10.00;;
77158;SDS011;66129;45.890;13.714;2023-06-22T23:52:00;13.40;;;9.43;;
77158;SDS011;66129;45.890;13.714;2023-06-22T23:54:26;15.13;;;10.63;;
77158;SDS011;66129;45.890;13.714;2023-06-22T23:56:52;14.38;;;10.18;;
77158;SDS011;66129;45.890;13.714;2023-06-22T23:59:18;15.05;;;10.23;;
